createdAt,value
2024-01-08T00:00:53.454Z,2.20
2024-01-08T00:03:40.743Z,2.30
2024-01-08T00:06:07.612Z,2.60
2024-01-08T00:08:34.623Z,2.20
2024-01-08T00:11:01.559Z,3.30
2024-01-08T00:13:28.269Z,3.40
2024-01-08T00:15:55.173Z,2.20
2024-01-08T00:18:23.329Z,2.80
2024-01-08T00:20:50.158Z,2.00
2024-01-08T00:23:16.986Z,3.70
2024-01-08T00:25:44.201Z,3.60
2024-01-08T00:28:10.985Z,3.60
2024-01-08T00:30:37.743Z,3.10
2024-01-08T00:33:05.154Z,2.50
2024-01-08T00:35:32.394Z,2.30
2024-01-08T00:37:59.271Z,4.40
2024-01-08T00:40:26.226Z,3.50
2024-01-08T00:42:52.875Z,2.10
2024-01-08T00:45:19.569Z,2.60
2024-01-08T00:47:46.587Z,2.90
2024-01-08T00:50:14.349Z,2.50
2024-01-08T00:52:41.147Z,4.20
2024-01-08T00:55:12.186Z,4.30
2024-01-08T00:57:40.279Z,3.00
2024-01-08T01:00:09.339Z,2.20
2024-01-08T01:02:36.462Z,3.40
2024-01-08T01:05:03.788Z,2.20
2024-01-08T01:07:32.255Z,2.30
2024-01-08T01:09:58.975Z,2.40
2024-01-08T01:12:26.031Z,2.50
2024-01-08T01:14:52.803Z,1.70
2024-01-08T01:17:19.561Z,1.90
2024-01-08T01:19:46.428Z,2.20
2024-01-08T01:22:13.273Z,2.30
2024-01-08T01:24:39.987Z,2.70
2024-01-08T01:27:06.690Z,3.10
2024-01-08T01:29:34.055Z,2.30
2024-01-08T01:32:00.988Z,1.90
2024-01-08T01:34:27.845Z,1.10
2024-01-08T01:36:54.781Z,2.10
2024-01-08T01:39:21.449Z,1.60
2024-01-08T01:41:51.398Z,1.50
2024-01-08T01:44:18.145Z,1.50
2024-01-08T01:46:52.050Z,1.20
2024-01-08T01:49:21.834Z,1.40
2024-01-08T01:51:50.347Z,2.00
2024-01-08T01:54:21.201Z,1.30
2024-01-08T01:56:53.257Z,1.60
2024-01-08T01:59:21.506Z,2.30
2024-01-08T02:01:49.503Z,1.60
2024-01-08T02:04:17.895Z,1.60
2024-01-08T02:06:45.579Z,1.90
2024-01-08T02:09:16.054Z,1.30
2024-01-08T02:11:43.969Z,2.00
2024-01-08T02:14:12.988Z,1.20
2024-01-08T02:16:40.285Z,1.90
2024-01-08T02:19:07.001Z,1.50
2024-01-08T02:21:34.706Z,1.90
2024-01-08T02:24:01.660Z,2.50
2024-01-08T02:26:28.639Z,2.40
2024-01-08T02:28:55.307Z,1.70
2024-01-08T02:31:23.499Z,2.70
2024-01-08T02:33:50.161Z,1.60
2024-01-08T02:36:16.757Z,2.20
2024-01-08T02:38:43.847Z,2.30
2024-01-08T02:41:10.657Z,1.50
2024-01-08T02:43:37.723Z,1.90
2024-01-08T02:46:04.852Z,2.70
2024-01-08T02:48:31.813Z,1.90
2024-01-08T02:50:58.737Z,1.50
2024-01-08T02:53:26.173Z,1.50
2024-01-08T02:55:53.116Z,2.70
2024-01-08T02:58:19.765Z,2.00
2024-01-08T03:00:46.680Z,3.70
2024-01-08T03:03:13.623Z,1.30
2024-01-08T03:05:40.521Z,2.00
2024-01-08T03:08:07.273Z,1.10
2024-01-08T03:10:34.118Z,1.80
2024-01-08T03:13:00.982Z,1.60
2024-01-08T03:15:27.720Z,2.00
2024-01-08T03:17:54.357Z,2.50
2024-01-08T03:20:23.488Z,1.70
2024-01-08T03:22:51.893Z,2.40
2024-01-08T03:25:18.616Z,2.40
2024-01-08T03:27:45.883Z,2.50
2024-01-08T03:30:13.320Z,2.20
2024-01-08T03:32:40.378Z,2.00
2024-01-08T03:35:07.742Z,2.70
2024-01-08T03:37:35.129Z,1.70
2024-01-08T03:40:02.877Z,2.50
2024-01-08T03:42:29.603Z,1.90
2024-01-08T03:44:56.265Z,2.90
2024-01-08T03:47:23.036Z,2.90
2024-01-08T03:49:49.942Z,2.70
2024-01-08T03:52:17.267Z,2.50
2024-01-08T03:54:43.956Z,3.00
2024-01-08T03:57:10.726Z,2.10
2024-01-08T03:59:37.755Z,2.50
2024-01-08T04:02:05.330Z,2.40
2024-01-08T04:04:32.418Z,3.40
2024-01-08T04:06:59.369Z,2.50
2024-01-08T04:09:26.575Z,2.60
2024-01-08T04:11:54.165Z,4.10
2024-01-08T04:14:20.964Z,2.40
2024-01-08T04:16:47.644Z,2.80
2024-01-08T04:19:14.411Z,2.80
2024-01-08T04:21:41.368Z,3.60
2024-01-08T04:24:08.366Z,2.80
2024-01-08T04:26:35.195Z,3.40
2024-01-08T04:29:01.929Z,4.90
2024-01-08T04:31:31.339Z,2.90
2024-01-08T04:33:58.266Z,3.20
2024-01-08T04:36:25.264Z,2.80
2024-01-08T04:38:52.028Z,2.70
2024-01-08T04:41:22.657Z,5.20
2024-01-08T04:43:49.758Z,3.90
2024-01-08T04:46:16.672Z,4.00
2024-01-08T04:48:43.764Z,5.90
2024-01-08T04:51:24.256Z,6.10
2024-01-08T04:53:50.943Z,4.10
2024-01-08T04:56:22.364Z,6.30
2024-01-08T04:58:50.250Z,4.90
2024-01-08T05:01:17.476Z,6.00
2024-01-08T05:03:44.797Z,6.90
2024-01-08T05:06:12.682Z,5.20
2024-01-08T05:08:39.646Z,5.40
2024-01-08T05:11:06.894Z,4.50
2024-01-08T05:13:34.452Z,7.10
2024-01-08T05:16:02.340Z,4.40
2024-01-08T05:18:30.043Z,6.70
2024-01-08T05:20:57.113Z,4.70
2024-01-08T05:23:24.119Z,5.00
2024-01-08T05:25:51.205Z,4.40
2024-01-08T05:28:18.247Z,5.50
2024-01-08T05:30:44.976Z,5.80
2024-01-08T05:33:12.537Z,7.20
2024-01-08T05:35:39.882Z,5.00
2024-01-08T05:38:07.079Z,5.50
2024-01-08T05:40:33.740Z,4.60
2024-01-08T05:43:00.481Z,5.30
2024-01-08T05:45:27.177Z,5.60
2024-01-08T05:47:55.630Z,5.80
2024-01-08T05:50:26.237Z,4.90
2024-01-08T05:52:53.554Z,4.50
2024-01-08T05:55:21.398Z,4.60
2024-01-08T05:57:48.281Z,5.40
2024-01-08T06:00:16.659Z,5.90
2024-01-08T06:02:43.557Z,4.10
2024-01-08T06:05:11.419Z,4.20
2024-01-08T06:07:39.417Z,4.20
2024-01-08T06:10:07.100Z,4.20
2024-01-08T06:12:33.954Z,3.60
2024-01-08T06:15:00.795Z,4.60
2024-01-08T06:17:28.242Z,5.20
2024-01-08T06:19:54.970Z,6.00
2024-01-08T06:22:22.615Z,6.30
2024-01-08T06:24:49.369Z,5.60
2024-01-08T06:27:16.878Z,6.30
2024-01-08T06:29:43.599Z,5.30
2024-01-08T06:32:11.109Z,7.90
2024-01-08T06:34:38.039Z,9.50
2024-01-08T06:37:04.877Z,7.40
2024-01-08T06:39:31.745Z,8.70
2024-01-08T06:41:58.467Z,7.10
2024-01-08T06:44:25.586Z,4.60
2024-01-08T06:46:52.824Z,8.20
2024-01-08T06:49:19.752Z,9.30
2024-01-08T06:51:46.515Z,17.50
2024-01-08T06:54:14.174Z,17.30
2024-01-08T06:56:40.786Z,15.80
2024-01-08T06:59:07.476Z,19.50
2024-01-08T07:01:34.208Z,15.40
2024-01-08T07:04:01.034Z,17.80
2024-01-08T07:06:27.811Z,14.80
2024-01-08T07:08:55.017Z,17.90
2024-01-08T07:11:23.832Z,26.50
2024-01-08T07:13:51.652Z,27.70
2024-01-08T07:16:19.315Z,25.90
2024-01-08T07:18:46.897Z,27.70
2024-01-08T07:21:16.879Z,23.30
2024-01-08T07:23:45.804Z,21.20
2024-01-08T07:26:14.755Z,22.00
2024-01-08T07:28:44.955Z,15.70
2024-01-08T07:31:13.396Z,12.60
2024-01-08T07:33:42.262Z,13.70
2024-01-08T07:36:09.999Z,11.20
2024-01-08T07:38:37.263Z,10.60
2024-01-08T07:41:05.192Z,11.60
2024-01-08T07:43:32.033Z,9.70
2024-01-08T07:45:59.033Z,7.80
2024-01-08T07:48:27.045Z,8.10
2024-01-08T07:50:55.959Z,7.00
2024-01-08T07:53:22.938Z,8.80
2024-01-08T07:55:50.283Z,6.80
2024-01-08T07:58:21.590Z,7.00
2024-01-08T08:00:51.773Z,11.20
2024-01-08T08:03:18.600Z,6.50
2024-01-08T08:05:46.498Z,7.00
2024-01-08T08:08:14.393Z,5.90
2024-01-08T08:10:41.147Z,5.80
2024-01-08T08:13:07.738Z,6.50
2024-01-08T08:15:35.278Z,5.60
2024-01-08T08:18:04.535Z,8.00
2024-01-08T08:20:32.238Z,7.10
2024-01-08T08:23:01.057Z,6.00
2024-01-08T08:25:28.185Z,6.40
2024-01-08T08:27:54.901Z,8.00
2024-01-08T08:30:22.969Z,8.50
2024-01-08T08:32:50.978Z,6.50
2024-01-08T08:35:18.487Z,5.40
2024-01-08T08:37:52.913Z,5.20
2024-01-08T08:40:22.105Z,5.50
2024-01-08T08:42:49.420Z,6.40
2024-01-08T08:45:18.050Z,7.80
2024-01-08T08:47:45.040Z,9.70
2024-01-08T08:50:13.052Z,5.20
2024-01-08T08:52:40.005Z,6.80
2024-01-08T08:55:09.664Z,7.90
2024-01-08T08:57:38.205Z,7.40
2024-01-08T09:00:09.528Z,7.20
2024-01-08T09:02:36.194Z,5.60
2024-01-08T09:05:05.450Z,6.40
2024-01-08T09:07:32.215Z,7.30
2024-01-08T09:09:58.899Z,8.90
2024-01-08T09:12:27.410Z,9.90
2024-01-08T09:14:54.112Z,11.30
2024-01-08T09:17:21.371Z,8.60
2024-01-08T09:19:52.182Z,9.30
2024-01-08T09:22:20.333Z,11.50
2024-01-08T09:24:46.992Z,6.70
2024-01-08T09:27:13.753Z,8.50
2024-01-08T09:29:40.509Z,9.60
2024-01-08T09:32:07.755Z,9.10
2024-01-08T09:34:34.640Z,8.00
2024-01-08T09:37:01.400Z,8.60
2024-01-08T09:39:28.647Z,9.10
2024-01-08T09:41:55.707Z,8.70
2024-01-08T09:44:23.197Z,8.30
2024-01-08T09:46:52.398Z,9.10
2024-01-08T09:49:21.439Z,9.30
2024-01-08T09:51:49.248Z,8.10
2024-01-08T09:54:21.149Z,8.00
2024-01-08T09:56:53.717Z,8.10
2024-01-08T09:59:20.352Z,8.00
2024-01-08T10:01:47.165Z,8.00
2024-01-08T10:04:14.020Z,7.20
2024-01-08T10:06:40.780Z,8.60
2024-01-08T10:09:07.962Z,7.30
2024-01-08T10:11:35.042Z,6.90
2024-01-08T10:14:01.754Z,7.40
2024-01-08T10:16:40.778Z,8.90
2024-01-08T10:19:18.798Z,8.10
2024-01-08T10:21:45.673Z,9.10
2024-01-08T10:24:12.641Z,8.00
2024-01-08T10:26:41.357Z,7.70
2024-01-08T10:29:14.583Z,6.90
2024-01-08T10:31:41.267Z,8.80
2024-01-08T10:34:08.228Z,9.80
2024-01-08T10:36:37.062Z,8.30
2024-01-08T10:39:03.929Z,8.60
2024-01-08T10:41:32.034Z,9.00
2024-01-08T10:44:00.509Z,8.60
2024-01-08T10:46:34.660Z,8.20
2024-01-08T10:49:05.152Z,11.70
2024-01-08T10:51:36.559Z,10.00
2024-01-08T10:54:03.644Z,9.70
2024-01-08T10:56:32.226Z,10.50
2024-01-08T10:59:06.088Z,10.50
2024-01-08T11:01:33.879Z,12.10
2024-01-08T11:04:05.038Z,11.70
2024-01-08T11:06:34.723Z,10.40
2024-01-08T11:09:01.693Z,11.90
2024-01-08T11:11:28.690Z,12.30
2024-01-08T11:13:55.680Z,11.90
2024-01-08T11:16:30.662Z,9.50
2024-01-08T11:19:19.720Z,10.80
2024-01-08T11:21:50.740Z,9.80
2024-01-08T11:24:17.637Z,10.70
2024-01-08T11:26:45.850Z,8.60
2024-01-08T11:29:12.844Z,9.30
2024-01-08T11:31:49.025Z,8.50
2024-01-08T11:34:53.403Z,10.00
2024-01-08T11:37:35.608Z,8.50
2024-01-08T11:40:04.559Z,9.10
2024-01-08T11:42:32.625Z,8.30
2024-01-08T11:45:02.582Z,10.20
2024-01-08T11:47:33.614Z,8.80
2024-01-08T11:50:01.516Z,11.90
2024-01-08T11:52:29.313Z,7.90
2024-01-08T11:54:56.739Z,9.90
2024-01-08T11:57:24.598Z,9.40
2024-01-08T11:59:52.787Z,10.00
2024-01-08T12:02:21.841Z,8.70
2024-01-08T12:04:56.670Z,6.70
2024-01-08T12:07:25.839Z,9.00
2024-01-08T12:09:53.958Z,8.90
2024-01-08T12:12:23.629Z,7.30
2024-01-08T12:14:50.462Z,7.10
2024-01-08T12:17:18.917Z,6.20
2024-01-08T12:19:54.027Z,6.70
2024-01-08T12:22:22.650Z,8.40
2024-01-08T12:24:51.597Z,7.20
2024-01-08T12:27:20.061Z,7.00
2024-01-08T12:29:49.720Z,4.70
2024-01-08T12:32:19.180Z,5.70
2024-01-08T12:34:46.005Z,5.90
2024-01-08T12:37:14.564Z,5.40
2024-01-08T12:39:41.772Z,4.50
2024-01-08T12:42:11.385Z,4.90
2024-01-08T12:44:38.446Z,6.10
2024-01-08T12:47:07.880Z,5.80
2024-01-08T12:49:35.639Z,6.70
2024-01-08T12:52:05.380Z,5.20
2024-01-08T12:54:39.705Z,6.20
2024-01-08T12:57:06.556Z,7.90
2024-01-08T12:59:35.346Z,5.70
2024-01-08T13:02:03.312Z,8.00
2024-01-08T13:04:30.158Z,7.70
2024-01-08T13:06:56.891Z,6.50
2024-01-08T13:09:24.358Z,6.20
2024-01-08T13:11:51.195Z,8.20
2024-01-08T13:14:18.671Z,6.80
2024-01-08T13:16:49.156Z,8.20
2024-01-08T13:19:16.668Z,8.40
2024-01-08T13:21:45.910Z,8.60
2024-01-08T13:24:15.874Z,6.00
2024-01-08T13:26:44.046Z,8.10
2024-01-08T13:29:13.137Z,12.60
2024-01-08T13:31:40.568Z,17.70
2024-01-08T13:34:08.419Z,17.90
2024-01-08T13:36:38.961Z,18.50
2024-01-08T13:39:06.473Z,19.40
2024-01-08T13:41:35.324Z,18.60
2024-01-08T13:44:02.681Z,16.70
2024-01-08T13:46:30.243Z,13.20
2024-01-08T13:48:57.805Z,13.50
2024-01-08T13:51:24.706Z,11.70
2024-01-08T13:53:51.897Z,12.50
2024-01-08T13:56:18.729Z,12.60
2024-01-08T13:58:45.817Z,11.10
2024-01-08T14:01:13.327Z,12.50
2024-01-08T14:03:40.269Z,10.20
2024-01-08T14:06:07.433Z,11.70
2024-01-08T14:08:34.568Z,12.40
2024-01-08T14:11:02.629Z,12.50
2024-01-08T14:13:30.640Z,13.80
2024-01-08T14:15:57.439Z,11.10
2024-01-08T14:18:24.496Z,11.90
2024-01-08T14:20:51.747Z,12.10
2024-01-08T14:23:18.613Z,11.90
2024-01-08T14:25:45.397Z,11.20
2024-01-08T14:28:12.075Z,11.80
2024-01-08T14:30:39.301Z,9.60
2024-01-08T14:33:06.422Z,11.70
2024-01-08T14:35:33.309Z,11.60
2024-01-08T14:38:00.231Z,11.80
2024-01-08T14:40:30.342Z,13.30
2024-01-08T14:43:00.633Z,13.60
2024-01-08T14:45:27.827Z,11.80
2024-01-08T14:47:54.599Z,12.00
2024-01-08T14:50:23.720Z,13.70
2024-01-08T14:52:50.767Z,13.10
2024-01-08T14:55:18.031Z,10.50
2024-01-08T14:57:45.014Z,12.80
2024-01-08T15:00:12.583Z,12.50
2024-01-08T15:02:41.302Z,12.70
2024-01-08T15:05:12.067Z,12.20
2024-01-08T15:07:38.977Z,12.00
2024-01-08T15:10:07.927Z,14.10
2024-01-08T15:12:35.043Z,12.90
2024-01-08T15:15:02.230Z,14.20
2024-01-08T15:17:29.513Z,12.40
2024-01-08T15:19:56.411Z,13.10
2024-01-08T15:22:23.271Z,14.80
2024-01-08T15:24:55.880Z,16.40
2024-01-08T15:27:26.446Z,14.70
2024-01-08T15:29:54.307Z,17.50
2024-01-08T15:32:25.511Z,16.40
2024-01-08T15:34:52.487Z,16.70
2024-01-08T15:37:19.841Z,17.80
2024-01-08T15:39:46.732Z,13.10
2024-01-08T15:42:13.568Z,15.40
2024-01-08T15:44:40.689Z,14.60
2024-01-08T15:47:08.968Z,15.70
2024-01-08T15:49:35.950Z,16.50
2024-01-08T15:52:03.179Z,12.20
2024-01-08T15:54:30.050Z,15.30
2024-01-08T15:56:56.884Z,12.50
2024-01-08T15:59:23.867Z,13.70
2024-01-08T16:01:50.684Z,15.60
2024-01-08T16:04:17.604Z,13.20
2024-01-08T16:06:49.214Z,13.00
2024-01-08T16:09:18.198Z,12.90
2024-01-08T16:11:45.086Z,11.30
2024-01-08T16:14:12.035Z,12.40
2024-01-08T16:16:39.202Z,12.60
2024-01-08T16:19:06.679Z,12.50
2024-01-08T16:21:33.691Z,15.40
2024-01-08T16:24:07.063Z,14.20
2024-01-08T16:26:41.140Z,13.40
2024-01-08T16:29:09.735Z,13.60
2024-01-08T16:31:36.556Z,15.70
2024-01-08T16:34:03.679Z,14.60
2024-01-08T16:36:30.807Z,14.10
2024-01-08T16:39:00.466Z,14.30
2024-01-08T16:41:27.490Z,17.10
2024-01-08T16:43:54.974Z,15.20
2024-01-08T16:46:22.130Z,13.90
2024-01-08T16:48:49.300Z,16.10
2024-01-08T16:51:16.193Z,18.50
2024-01-08T16:53:43.190Z,17.40
2024-01-08T16:56:10.373Z,16.90
2024-01-08T16:58:37.224Z,17.20
2024-01-08T17:01:04.268Z,18.90
2024-01-08T17:03:32.473Z,16.80
2024-01-08T17:06:01.702Z,16.80
2024-01-08T17:08:31.063Z,16.20
2024-01-08T17:10:57.870Z,18.20
2024-01-08T17:13:24.841Z,15.70
2024-01-08T17:15:51.473Z,16.30
2024-01-08T17:18:18.630Z,15.70
2024-01-08T17:20:45.917Z,15.10
2024-01-08T17:23:12.660Z,14.70
2024-01-08T17:25:39.895Z,17.10
2024-01-08T17:28:06.753Z,15.90
2024-01-08T17:30:33.514Z,18.30
2024-01-08T17:33:00.484Z,18.30
2024-01-08T17:35:27.747Z,16.70
2024-01-08T17:37:54.852Z,18.80
2024-01-08T17:40:21.948Z,18.50
2024-01-08T17:42:48.603Z,19.50
2024-01-08T17:45:15.484Z,19.50
2024-01-08T17:47:43.065Z,18.40
2024-01-08T17:50:10.921Z,22.60
2024-01-08T17:52:38.099Z,21.50
2024-01-08T17:55:06.617Z,25.90
2024-01-08T17:57:33.653Z,25.20
2024-01-08T18:00:00.364Z,23.80
2024-01-08T18:02:27.579Z,21.90
2024-01-08T18:04:54.421Z,23.30
2024-01-08T18:07:21.629Z,24.80
2024-01-08T18:09:48.430Z,23.90
2024-01-08T18:12:15.271Z,22.30
2024-01-08T18:14:42.429Z,20.80
2024-01-08T18:17:09.751Z,21.50
2024-01-08T18:19:36.474Z,21.10
2024-01-08T18:22:06.233Z,21.00
2024-01-08T18:24:33.679Z,24.70
2024-01-08T18:27:00.453Z,20.20
2024-01-08T18:29:27.526Z,22.90
2024-01-08T18:31:54.330Z,21.50
2024-01-08T18:34:21.312Z,20.40
2024-01-08T18:36:48.475Z,19.00
2024-01-08T18:39:19.502Z,21.80
2024-01-08T18:41:49.097Z,21.90
2024-01-08T18:44:17.387Z,19.80
2024-01-08T18:46:45.481Z,19.30
2024-01-08T18:49:29.295Z,19.80
2024-01-08T18:51:56.227Z,24.80
2024-01-08T18:54:23.245Z,20.50
2024-01-08T18:56:49.944Z,18.80
2024-01-08T18:59:17.246Z,19.50
2024-01-08T19:01:44.093Z,20.70
2024-01-08T19:04:10.915Z,20.30
2024-01-08T19:06:37.853Z,18.60
2024-01-08T19:09:05.964Z,17.30
2024-01-08T19:11:33.386Z,19.40
2024-01-08T19:14:00.264Z,19.30
2024-01-08T19:16:27.002Z,20.00
2024-01-08T19:18:54.084Z,18.30
2024-01-08T19:21:21.212Z,20.20
2024-01-08T19:23:47.909Z,20.50
2024-01-08T19:26:16.550Z,18.40
2024-01-08T19:28:44.697Z,18.60
2024-01-08T19:31:14.857Z,19.10
2024-01-08T19:33:43.634Z,18.60
2024-01-08T19:36:10.464Z,18.70
2024-01-08T19:38:37.384Z,18.60
2024-01-08T19:41:04.139Z,21.00
2024-01-08T19:43:30.836Z,19.30
2024-01-08T19:45:57.794Z,17.90
2024-01-08T19:48:24.684Z,19.00
2024-01-08T19:50:51.701Z,21.00
2024-01-08T19:53:18.447Z,19.30
2024-01-08T19:55:45.465Z,19.60
2024-01-08T19:58:12.318Z,19.10
2024-01-08T20:00:39.939Z,21.10
2024-01-08T20:03:06.842Z,15.60
2024-01-08T20:05:34.243Z,16.40
2024-01-08T20:08:01.302Z,17.00
2024-01-08T20:10:28.276Z,17.00
2024-01-08T20:12:54.918Z,16.20
2024-01-08T20:15:21.719Z,18.10
2024-01-08T20:17:48.895Z,17.10
2024-01-08T20:20:16.500Z,16.70
2024-01-08T20:22:43.566Z,19.40
2024-01-08T20:25:13.220Z,16.80
2024-01-08T20:27:40.329Z,20.80
2024-01-08T20:30:08.363Z,18.20
2024-01-08T20:32:35.390Z,21.20
2024-01-08T20:35:02.356Z,18.00
2024-01-08T20:37:30.034Z,22.20
2024-01-08T20:39:58.112Z,17.90
2024-01-08T20:42:24.861Z,19.20
2024-01-08T20:44:51.517Z,17.50
2024-01-08T20:47:19.427Z,18.60
2024-01-08T20:49:47.674Z,15.30
2024-01-08T20:52:15.584Z,17.50
2024-01-08T20:54:44.982Z,26.90
2024-01-08T20:57:12.330Z,24.80
2024-01-08T20:59:42.470Z,27.90
2024-01-08T21:02:09.220Z,25.90
2024-01-08T21:04:36.793Z,26.70
2024-01-08T21:07:04.069Z,25.80
2024-01-08T21:09:30.974Z,20.90
2024-01-08T21:11:57.730Z,18.80
2024-01-08T21:14:24.505Z,23.00
2024-01-08T21:16:51.275Z,18.10
2024-01-08T21:19:17.966Z,18.70
2024-01-08T21:21:44.759Z,19.70
2024-01-08T21:24:11.460Z,16.40
2024-01-08T21:26:38.429Z,15.90
2024-01-08T21:29:05.419Z,20.40
2024-01-08T21:31:32.246Z,18.90
2024-01-08T21:33:58.962Z,19.40
2024-01-08T21:36:27.406Z,18.10
2024-01-08T21:38:54.066Z,16.10
2024-01-08T21:41:21.120Z,16.50
2024-01-08T21:43:47.928Z,17.00
2024-01-08T21:46:14.547Z,17.20
2024-01-08T21:48:44.802Z,18.00
2024-01-08T21:51:13.303Z,16.60
2024-01-08T21:53:40.510Z,15.90
2024-01-08T21:56:07.674Z,18.10
2024-01-08T21:58:34.300Z,21.10
2024-01-08T22:01:01.354Z,16.20
2024-01-08T22:03:28.319Z,18.70
2024-01-08T22:05:55.556Z,16.50
2024-01-08T22:08:22.746Z,19.00
2024-01-08T22:10:49.478Z,21.80
2024-01-08T22:13:16.214Z,19.10
2024-01-08T22:15:44.277Z,19.40
2024-01-08T22:18:12.296Z,18.50
2024-01-08T22:20:39.104Z,19.90
2024-01-08T22:23:06.112Z,17.40
2024-01-08T22:25:32.818Z,21.70
2024-01-08T22:27:59.546Z,20.60
2024-01-08T22:30:26.300Z,20.50
2024-01-08T22:32:53.890Z,19.80
2024-01-08T22:35:20.890Z,24.30
2024-01-08T22:37:47.866Z,25.40
2024-01-08T22:40:15.227Z,19.20
2024-01-08T22:42:42.022Z,20.60
2024-01-08T22:45:09.880Z,23.50
2024-01-08T22:47:37.059Z,19.10
2024-01-08T22:50:04.438Z,19.50
2024-01-08T22:52:31.344Z,21.90
2024-01-08T22:54:58.356Z,19.70
2024-01-08T22:57:25.015Z,22.20
2024-01-08T22:59:52.263Z,21.50
2024-01-08T23:02:19.062Z,22.00
2024-01-08T23:04:46.221Z,19.70
2024-01-08T23:07:12.960Z,22.40
2024-01-08T23:09:39.649Z,17.60
2024-01-08T23:12:06.873Z,19.00
2024-01-08T23:14:33.584Z,19.30
2024-01-08T23:17:00.772Z,16.70
2024-01-08T23:19:28.031Z,16.60
2024-01-08T23:21:54.844Z,17.20
2024-01-08T23:24:21.575Z,17.00
2024-01-08T23:26:48.456Z,16.50
2024-01-08T23:29:15.425Z,17.70
2024-01-08T23:31:42.972Z,16.70
2024-01-08T23:34:17.515Z,16.90
2024-01-08T23:36:48.858Z,15.90
2024-01-08T23:39:15.910Z,14.70
2024-01-08T23:41:43.003Z,15.00
2024-01-08T23:44:12.392Z,14.60
2024-01-08T23:46:40.807Z,13.40
2024-01-08T23:49:07.799Z,14.00
2024-01-08T23:51:34.704Z,19.30
2024-01-08T23:54:01.416Z,14.60
2024-01-08T23:56:28.471Z,12.50
2024-01-08T23:58:55.372Z,12.40
